createdAt,value
2022-08-17T00:00:00.999Z,98101.75
2022-08-17T00:02:27.985Z,98104.88
2022-08-17T00:04:56.034Z,98102.81
2022-08-17T00:07:23.128Z,98098.53
2022-08-17T00:09:50.262Z,98102.72
2022-08-17T00:12:41.578Z,98105.41
2022-08-17T00:15:06.246Z,98104.22
2022-08-17T00:17:38.083Z,98110.09
2022-08-17T00:20:06.636Z,98105.91
2022-08-17T00:22:36.538Z,98108.91
2022-08-17T00:25:17.595Z,98104.69
2022-08-17T00:27:44.421Z,98106.97
2022-08-17T00:30:13.252Z,98092.38
2022-08-17T00:33:12.287Z,98096.00
2022-08-17T00:35:35.215Z,98098.28
2022-08-17T00:38:04.069Z,98101.34
2022-08-17T00:40:39.916Z,98096.00
2022-08-17T00:43:45.598Z,98102.59
2022-08-17T00:46:29.968Z,98095.09
2022-08-17T00:48:57.427Z,98094.00
2022-08-17T00:51:46.519Z,98090.00
2022-08-17T00:54:18.732Z,98094.66
2022-08-17T00:56:57.196Z,98084.50
2022-08-17T00:59:31.847Z,98094.88
2022-08-17T01:02:00.594Z,98086.16
2022-08-17T01:04:31.372Z,98087.25
2022-08-17T01:07:01.258Z,98096.66
2022-08-17T01:09:28.491Z,98091.09
2022-08-17T01:11:55.939Z,98087.88
2022-08-17T01:14:25.544Z,98078.69
2022-08-17T01:16:55.638Z,98086.53
2022-08-17T01:19:31.006Z,98082.94
2022-08-17T01:22:20.979Z,98082.88
2022-08-17T01:24:57.618Z,98085.56
2022-08-17T01:27:26.584Z,98093.06
2022-08-17T01:30:00.834Z,98086.66
2022-08-17T01:32:30.352Z,98092.47
2022-08-17T01:34:58.215Z,98099.78
2022-08-17T01:37:34.435Z,98100.34
2022-08-17T01:40:33.527Z,98095.28
2022-08-17T01:43:08.517Z,98097.88
2022-08-17T01:45:44.639Z,98104.84
2022-08-17T01:48:13.019Z,98102.19
2022-08-17T01:50:44.234Z,98100.88
2022-08-17T01:53:19.746Z,98104.72
2022-08-17T01:55:52.330Z,98101.47
2022-08-17T01:58:21.349Z,98105.75
2022-08-17T02:01:00.994Z,98107.31
2022-08-17T02:03:29.782Z,98108.13
2022-08-17T02:05:57.095Z,98100.25
2022-08-17T02:08:37.162Z,98096.31
2022-08-17T02:11:12.494Z,98099.16
2022-08-17T02:13:40.387Z,98096.84
2022-08-17T02:16:07.472Z,98095.50
2022-08-17T02:18:34.539Z,98089.91
2022-08-17T02:21:02.278Z,98093.03
2022-08-17T02:23:32.808Z,98091.44
2022-08-17T02:26:01.335Z,98096.19
2022-08-17T02:28:29.209Z,98092.00
2022-08-17T02:31:01.747Z,98082.91
2022-08-17T02:33:43.100Z,98083.75
2022-08-17T02:36:12.704Z,98081.00
2022-08-17T02:38:41.230Z,98083.81
2022-08-17T02:41:09.048Z,98090.84
2022-08-17T02:43:35.954Z,98086.56
2022-08-17T02:46:02.829Z,98088.16
2022-08-17T02:48:31.436Z,98087.09
2022-08-17T02:51:01.033Z,98090.28
2022-08-17T02:53:33.660Z,98082.25
2022-08-17T02:56:03.536Z,98082.31
2022-08-17T02:58:35.261Z,98085.13
2022-08-17T03:01:09.631Z,98087.41
2022-08-17T03:03:38.142Z,98097.03
2022-08-17T03:06:07.541Z,98089.91
2022-08-17T03:08:35.506Z,98085.66
2022-08-17T03:11:02.349Z,98101.50
2022-08-17T03:13:30.896Z,98104.16
2022-08-17T03:15:58.412Z,98101.78
2022-08-17T03:18:26.346Z,98108.06
2022-08-17T03:21:00.447Z,98137.19
2022-08-17T03:23:29.718Z,98152.59
2022-08-17T03:25:58.652Z,98144.16
2022-08-17T03:28:26.050Z,98151.34
2022-08-17T03:30:52.920Z,98146.19
2022-08-17T03:33:20.311Z,98141.31
2022-08-17T03:35:47.423Z,98143.34
2022-08-17T03:38:17.374Z,98146.19
2022-08-17T03:40:57.471Z,98153.44
2022-08-17T03:43:30.854Z,98153.59
2022-08-17T03:46:28.310Z,98149.31
2022-08-17T03:49:25.677Z,98143.19
2022-08-17T03:52:13.927Z,98151.91
2022-08-17T03:55:02.264Z,98154.19
2022-08-17T03:57:29.184Z,98154.00
2022-08-17T03:59:56.906Z,98154.00
2022-08-17T04:02:34.314Z,98156.22
2022-08-17T04:05:02.069Z,98152.31
2022-08-17T04:07:31.507Z,98163.69
2022-08-17T04:10:00.456Z,98165.25
2022-08-17T04:12:31.567Z,98162.50
2022-08-17T04:14:59.155Z,98160.66
2022-08-17T04:17:28.901Z,98171.25
2022-08-17T04:19:56.697Z,98170.94
2022-08-17T04:22:31.994Z,98175.69
2022-08-17T04:25:09.901Z,98170.09
2022-08-17T04:27:37.121Z,98168.84
2022-08-17T04:30:07.239Z,98170.00
2022-08-17T04:33:06.430Z,98171.81
2022-08-17T04:35:50.017Z,98181.31
2022-08-17T04:38:21.862Z,98185.50
2022-08-17T04:41:07.830Z,98194.44
2022-08-17T04:43:36.762Z,98188.56
2022-08-17T04:46:10.388Z,98189.00
2022-08-17T04:48:42.585Z,98191.34
2022-08-17T04:51:27.837Z,98207.19
2022-08-17T04:54:00.381Z,98190.00
2022-08-17T04:56:29.609Z,98199.78
2022-08-17T04:59:02.590Z,98190.69
2022-08-17T05:01:34.486Z,98187.56
2022-08-17T05:04:33.283Z,98194.41
2022-08-17T05:06:55.047Z,98189.06
2022-08-17T05:09:22.160Z,98182.44
2022-08-17T05:11:51.311Z,98190.81
2022-08-17T05:14:18.237Z,98186.50
2022-08-17T05:16:45.759Z,98186.06
2022-08-17T05:19:12.627Z,98185.66
2022-08-17T05:21:39.542Z,98182.16
2022-08-17T05:24:38.374Z,98176.22
2022-08-17T05:26:53.404Z,98183.84
2022-08-17T05:29:22.157Z,98176.50
2022-08-17T05:32:39.173Z,98179.28
2022-08-17T05:35:00.424Z,98179.00
2022-08-17T05:37:28.011Z,98181.50
2022-08-17T05:39:55.233Z,98181.75
2022-08-17T05:42:22.582Z,98176.69
2022-08-17T05:44:49.488Z,98181.38
2022-08-17T05:47:18.022Z,98177.94
2022-08-17T05:49:44.985Z,98177.63
2022-08-17T05:52:56.251Z,98189.03
2022-08-17T05:56:29.465Z,98189.03
2022-08-17T05:59:37.742Z,98190.47
2022-08-17T06:02:22.284Z,98191.28
2022-08-17T06:05:29.172Z,98202.66
2022-08-17T06:08:32.268Z,98208.16
2022-08-17T06:11:44.190Z,98206.44
2022-08-17T06:14:35.579Z,98194.78
2022-08-17T06:17:09.398Z,98198.81
2022-08-17T06:20:01.432Z,98195.75
2022-08-17T06:22:37.920Z,98197.94
2022-08-17T06:25:17.901Z,98190.06
2022-08-17T06:27:55.912Z,98195.56
2022-08-17T06:30:57.799Z,98208.91
2022-08-17T06:33:24.621Z,98214.09
2022-08-17T06:36:40.176Z,98207.06
2022-08-17T06:39:40.975Z,98220.88
2022-08-17T06:43:02.597Z,98231.16
2022-08-17T06:45:39.100Z,98236.66
2022-08-17T06:48:31.212Z,98219.34
2022-08-17T06:51:25.913Z,98222.59
2022-08-17T06:53:59.896Z,98222.63
2022-08-17T06:57:05.770Z,98224.25
2022-08-17T06:59:57.358Z,98206.56
2022-08-17T07:03:15.461Z,98197.56
2022-08-17T07:06:01.632Z,98201.91
2022-08-17T07:08:51.140Z,98198.78
2022-08-17T07:11:39.867Z,98192.50
2022-08-17T07:14:38.154Z,98207.91
2022-08-17T07:17:12.055Z,98210.66
2022-08-17T07:19:45.622Z,98212.25
2022-08-17T07:22:53.511Z,98215.03
2022-08-17T07:25:28.492Z,98210.66
2022-08-17T07:28:00.766Z,98223.69
2022-08-17T07:30:40.081Z,98226.06
2022-08-17T07:33:21.218Z,98228.44
2022-08-17T07:35:50.211Z,98223.66
2022-08-17T07:38:35.770Z,98219.72
2022-08-17T07:41:10.609Z,98231.56
2022-08-17T07:43:52.805Z,98232.38
2022-08-17T07:46:50.768Z,98229.56
2022-08-17T07:49:40.712Z,98242.22
2022-08-17T07:52:47.865Z,98247.75
2022-08-17T07:55:32.851Z,98247.78
2022-08-17T07:58:00.199Z,98248.59
2022-08-17T08:00:32.295Z,98264.38
2022-08-17T08:03:11.302Z,98256.47
2022-08-17T08:06:01.898Z,98257.66
2022-08-17T08:08:43.300Z,98260.44
2022-08-17T08:11:29.749Z,98251.03
2022-08-17T08:14:29.559Z,98253.78
2022-08-17T08:17:06.353Z,98250.22
2022-08-17T08:19:36.497Z,98258.13
2022-08-17T08:22:22.029Z,98255.78
2022-08-17T08:25:07.898Z,98255.78
2022-08-17T08:28:10.798Z,98266.81
2022-08-17T08:30:49.397Z,98272.38
2022-08-17T08:33:39.875Z,98272.75
2022-08-17T08:37:12.668Z,98272.75
2022-08-17T08:39:28.540Z,98291.31
2022-08-17T08:42:17.677Z,98292.09
2022-08-17T08:45:09.831Z,98293.28
2022-08-17T08:48:23.127Z,98298.81
2022-08-17T08:51:13.546Z,98292.50
2022-08-17T08:53:47.726Z,98300.00
2022-08-17T08:57:04.987Z,98296.06
2022-08-17T09:00:02.108Z,98308.28
2022-08-17T09:03:37.592Z,98292.88
2022-08-17T09:06:57.908Z,98285.00
2022-08-17T09:09:59.333Z,98292.09
2022-08-17T09:13:20.764Z,98290.53
2022-08-17T09:16:46.133Z,98281.84
2022-08-17T09:19:44.655Z,98288.97
2022-08-17T09:22:36.231Z,98292.09
2022-08-17T09:25:12.701Z,98292.88
2022-08-17T09:28:02.348Z,98316.19
2022-08-17T09:30:43.667Z,98309.06
2022-08-17T09:33:17.559Z,98295.66
2022-08-17T09:36:14.408Z,98295.28
2022-08-17T09:39:10.909Z,98300.81
2022-08-17T09:42:04.779Z,98295.28
2022-08-17T09:44:44.129Z,98285.78
2022-08-17T09:47:45.421Z,98299.22
2022-08-17T09:51:05.173Z,98293.28
2022-08-17T09:53:27.383Z,98297.22
2022-08-17T09:56:25.235Z,98291.31
2022-08-17T09:59:01.171Z,98309.06
2022-08-17T10:01:55.825Z,98316.06
2022-08-17T10:04:48.392Z,98309.34
2022-08-17T10:07:28.752Z,98309.75
2022-08-17T10:10:32.367Z,98316.00
2022-08-17T10:13:19.750Z,98312.84
2022-08-17T10:16:29.046Z,98304.59
2022-08-17T10:19:30.462Z,98312.47
2022-08-17T10:22:34.836Z,98320.34
2022-08-17T10:25:42.548Z,98352.38
2022-08-17T10:28:25.827Z,98378.13
2022-08-17T10:31:33.088Z,98384.50
2022-08-17T10:34:23.977Z,98398.75
2022-08-17T10:37:05.815Z,98407.44
2022-08-17T10:39:54.368Z,98408.25
2022-08-17T10:42:32.745Z,98409.03
2022-08-17T10:45:14.384Z,98405.88
2022-08-17T10:48:31.044Z,98397.19
2022-08-17T10:51:11.041Z,98394.44
2022-08-17T10:53:41.799Z,98403.50
2022-08-17T10:56:15.396Z,98408.25
2022-08-17T10:58:58.936Z,98411.44
2022-08-17T11:01:38.000Z,98418.53
2022-08-17T11:04:11.112Z,98415.38
2022-08-17T11:06:37.816Z,98402.34
2022-08-17T11:09:55.730Z,98408.31
2022-08-17T11:12:54.743Z,98401.19
2022-08-17T11:15:36.923Z,98391.69
2022-08-17T11:18:34.846Z,98386.53
2022-08-17T11:21:29.699Z,98381.38
2022-08-17T11:24:26.740Z,98393.22
2022-08-17T11:27:33.798Z,98386.84
2022-08-17T11:30:04.608Z,98370.97
2022-08-17T11:32:52.876Z,98376.09
2022-08-17T11:35:21.685Z,98382.41
2022-08-17T11:38:46.144Z,98380.41
2022-08-17T11:42:07.227Z,98366.59
2022-08-17T11:45:07.337Z,98366.22
2022-08-17T11:48:35.710Z,98372.59
2022-08-17T11:51:33.449Z,98359.16
2022-08-17T11:54:34.145Z,98358.69
2022-08-17T11:57:27.630Z,98349.19
2022-08-17T12:00:14.235Z,98344.00
2022-08-17T12:02:48.191Z,98320.19
2022-08-17T12:05:19.348Z,98309.84
2022-08-17T12:08:06.934Z,98303.47
2022-08-17T12:10:41.462Z,98293.16
2022-08-17T12:13:16.875Z,98291.94
2022-08-17T12:15:49.738Z,98301.03
2022-08-17T12:18:32.333Z,98296.66
2022-08-17T12:21:15.365Z,98299.84
2022-08-17T12:23:53.309Z,98301.41
2022-08-17T12:26:26.999Z,98318.78
2022-08-17T12:29:01.798Z,98323.91
2022-08-17T12:31:54.193Z,98314.44
2022-08-17T12:34:36.029Z,98310.47
2022-08-17T12:37:15.195Z,98305.66
2022-08-17T12:40:05.095Z,98309.41
2022-08-17T12:42:41.333Z,98309.59
2022-08-17T12:45:25.587Z,98296.34
2022-08-17T12:48:14.208Z,98288.03
2022-08-17T12:50:45.795Z,98299.16
2022-08-17T12:53:17.052Z,98295.06
2022-08-17T12:55:44.517Z,98289.56
2022-08-17T12:58:30.361Z,98297.78
2022-08-17T13:01:09.104Z,98298.50
2022-08-17T13:03:44.281Z,98289.66
2022-08-17T13:06:25.608Z,98282.84
2022-08-17T13:08:52.458Z,98278.75
2022-08-17T13:11:24.757Z,98279.34
2022-08-17T13:13:56.004Z,98276.63
2022-08-17T13:16:29.712Z,98271.53
2022-08-17T13:19:15.158Z,98260.06
2022-08-17T13:21:51.769Z,98265.06
2022-08-17T13:24:21.327Z,98260.16
2022-08-17T13:27:08.618Z,98265.50
2022-08-17T13:29:53.446Z,98263.34
2022-08-17T13:32:39.902Z,98259.38
2022-08-17T13:35:50.131Z,98258.06
2022-08-17T13:38:47.864Z,98260.13
2022-08-17T13:41:36.955Z,98246.69
2022-08-17T13:44:31.063Z,98240.38
2022-08-17T13:46:59.669Z,98236.88
2022-08-17T13:49:41.582Z,98244.38
2022-08-17T13:52:52.305Z,98239.47
2022-08-17T13:55:28.399Z,98229.69
2022-08-17T13:58:07.009Z,98231.53
2022-08-17T14:01:21.513Z,98213.84
2022-08-17T14:03:53.471Z,98213.75
2022-08-17T14:06:49.325Z,98210.03
2022-08-17T14:09:09.273Z,98207.50
2022-08-17T14:11:36.418Z,98199.50
2022-08-17T14:14:04.065Z,98209.28
2022-08-17T14:16:31.079Z,98211.16
2022-08-17T14:18:58.190Z,98212.66
2022-08-17T14:21:25.022Z,98202.81
2022-08-17T14:23:54.881Z,98181.19
2022-08-17T14:26:23.421Z,98186.66
2022-08-17T14:28:56.325Z,98192.06
2022-08-17T14:31:24.528Z,98202.16
2022-08-17T14:33:52.121Z,98197.03
2022-08-17T14:36:19.360Z,98205.56
2022-08-17T14:38:46.226Z,98196.59
2022-08-17T14:41:21.457Z,98196.50
2022-08-17T14:43:50.596Z,98198.50
2022-08-17T14:46:17.850Z,98199.72
2022-08-17T14:48:46.088Z,98208.75
2022-08-17T14:51:13.038Z,98206.78
2022-08-17T14:53:42.611Z,98208.91
2022-08-17T14:56:09.473Z,98218.84
2022-08-17T14:58:36.614Z,98211.34
2022-08-17T15:01:11.331Z,98204.81
2022-08-17T15:03:42.229Z,98211.38
2022-08-17T15:06:15.261Z,98199.59
2022-08-17T15:08:44.035Z,98206.91
2022-08-17T15:11:14.278Z,98206.75
2022-08-17T15:13:52.567Z,98195.06
2022-08-17T15:16:20.514Z,98197.19
2022-08-17T15:18:47.469Z,98198.03
2022-08-17T15:21:15.782Z,98188.22
2022-08-17T15:23:43.561Z,98195.44
2022-08-17T15:26:11.689Z,98201.09
2022-08-17T15:28:38.621Z,98189.59
2022-08-17T15:31:06.882Z,98191.50
2022-08-17T15:33:34.266Z,98194.38
2022-08-17T15:36:09.277Z,98200.75
2022-08-17T15:38:39.727Z,98195.69
2022-08-17T15:41:15.142Z,98194.38
2022-08-17T15:43:44.459Z,98199.38
2022-08-17T15:46:19.209Z,98200.06
2022-08-17T15:48:50.545Z,98204.31
2022-08-17T15:51:30.901Z,98205.53
2022-08-17T15:54:19.046Z,98201.28
2022-08-17T15:56:49.723Z,98185.66
2022-08-17T15:59:16.850Z,98189.31
2022-08-17T16:03:14.651Z,98183.09
2022-08-17T16:04:31.901Z,98180.47
2022-08-17T16:06:59.906Z,98182.63
2022-08-17T16:09:27.582Z,98185.13
2022-08-17T16:11:56.153Z,98180.94
2022-08-17T16:14:32.325Z,98173.06
2022-08-17T16:17:00.602Z,98174.72
2022-08-17T16:19:27.423Z,98183.13
2022-08-17T16:21:54.278Z,98182.41
2022-08-17T16:24:21.194Z,98170.22
2022-08-17T16:26:48.072Z,98181.84
2022-08-17T16:29:15.005Z,98181.94
2022-08-17T16:31:43.162Z,98176.19
2022-08-17T16:34:17.371Z,98182.31
2022-08-17T16:36:51.793Z,98179.25
2022-08-17T16:39:29.008Z,98180.97
2022-08-17T16:41:57.490Z,98175.13
2022-08-17T16:44:31.763Z,98178.91
2022-08-17T16:47:02.478Z,98177.44
2022-08-17T16:49:36.656Z,98186.31
2022-08-17T16:52:10.192Z,98172.91
2022-08-17T16:54:43.279Z,98174.97
2022-08-17T16:57:11.475Z,98180.56
2022-08-17T16:59:40.742Z,98168.72
2022-08-17T17:02:12.769Z,98165.19
2022-08-17T17:05:06.804Z,98159.75
2022-08-17T17:08:08.932Z,98155.88
2022-08-17T17:10:44.342Z,98154.41
2022-08-17T17:13:32.288Z,98160.78
2022-08-17T17:16:15.948Z,98160.03
2022-08-17T17:19:08.843Z,98160.53
2022-08-17T17:22:15.033Z,98151.47
2022-08-17T17:25:03.274Z,98154.38
2022-08-17T17:27:48.959Z,98145.38
2022-08-17T17:30:43.341Z,98142.28
2022-08-17T17:33:19.631Z,98140.44
2022-08-17T17:36:06.908Z,98144.00
2022-08-17T17:39:17.973Z,98130.59
2022-08-17T17:42:07.590Z,98136.91
2022-08-17T17:44:43.469Z,98141.34
2022-08-17T17:47:12.753Z,98141.38
2022-08-17T17:49:46.110Z,98140.19
2022-08-17T17:52:37.100Z,98151.06
2022-08-17T17:55:16.133Z,98142.53
2022-08-17T17:58:08.454Z,98160.78
2022-08-17T18:01:08.502Z,98148.91
2022-08-17T18:03:58.892Z,98147.03
2022-08-17T18:06:39.669Z,98150.22
2022-08-17T18:09:41.625Z,98156.19
2022-08-17T18:12:28.462Z,98161.75
2022-08-17T18:15:36.969Z,98169.63
2022-08-17T18:18:17.166Z,98170.16
2022-08-17T18:20:55.764Z,98171.44
2022-08-17T18:23:28.226Z,98169.09
2022-08-17T18:25:56.710Z,98157.63
2022-08-17T18:28:32.932Z,98159.56
2022-08-17T18:31:09.190Z,98162.34
2022-08-17T18:33:39.205Z,98155.66
2022-08-17T18:36:07.525Z,98157.28
2022-08-17T18:38:42.510Z,98164.09
2022-08-17T18:41:30.286Z,98172.88
2022-08-17T18:44:15.957Z,98168.63
2022-08-17T18:46:42.905Z,98176.16
2022-08-17T18:49:28.162Z,98180.97
2022-08-17T18:52:28.800Z,98188.56
2022-08-17T18:55:15.335Z,98179.13
2022-08-17T18:57:47.616Z,98179.13
2022-08-17T19:00:41.099Z,98176.41
2022-08-17T19:03:20.053Z,98179.22
2022-08-17T19:05:48.558Z,98183.63
2022-08-17T19:08:33.487Z,98185.97
2022-08-17T19:11:16.756Z,98194.31
2022-08-17T19:14:06.504Z,98208.19
2022-08-17T19:17:12.130Z,98211.38
2022-08-17T19:20:18.558Z,98209.03
2022-08-17T19:23:04.064Z,98201.88
2022-08-17T19:25:37.917Z,98208.19
2022-08-17T19:28:48.634Z,98208.56
2022-08-17T19:31:23.989Z,98215.72
2022-08-17T19:33:51.581Z,98216.09
2022-08-17T19:36:25.604Z,98224.81
2022-08-17T19:39:20.944Z,98218.50
2022-08-17T19:42:06.179Z,98219.31
2022-08-17T19:44:59.486Z,98217.78
2022-08-17T19:48:03.185Z,98215.03
2022-08-17T19:50:49.930Z,98207.53
2022-08-17T19:54:06.412Z,98210.66
2022-08-17T19:57:01.821Z,98208.28
2022-08-17T20:00:05.023Z,98212.25
2022-08-17T20:02:48.476Z,98210.28
2022-08-17T20:05:25.911Z,98196.47
2022-08-17T20:08:13.422Z,98198.81
2022-08-17T20:11:10.063Z,98200.81
2022-08-17T20:14:09.782Z,98206.75
2022-08-17T20:16:36.605Z,98207.94
2022-08-17T20:22:11.413Z,98216.69
2022-08-17T20:24:55.131Z,98220.22
2022-08-17T20:27:31.678Z,98223.38
2022-08-17T20:30:04.025Z,98226.16
2022-08-17T20:32:51.754Z,98222.59
2022-08-17T20:35:33.726Z,98226.53
2022-08-17T20:38:34.083Z,98215.88
2022-08-17T20:41:10.008Z,98222.19
2022-08-17T20:43:37.190Z,98227.31
2022-08-17T20:46:28.197Z,98230.91
2022-08-17T20:49:14.710Z,98224.97
2022-08-17T20:52:02.438Z,98215.50
2022-08-17T20:54:54.929Z,98223.41
2022-08-17T20:57:37.122Z,98230.50
2022-08-17T21:00:30.095Z,98224.97
2022-08-17T21:03:22.419Z,98241.56
2022-08-17T21:06:17.104Z,98239.97
2022-08-17T21:09:16.526Z,98240.75
2022-08-17T21:12:02.968Z,98245.88
2022-08-17T21:15:00.984Z,98242.34
2022-08-17T21:17:56.333Z,98237.59
2022-08-17T21:20:44.377Z,98243.13
2022-08-17T21:23:26.003Z,98239.19
2022-08-17T21:26:30.789Z,98249.44
2022-08-17T21:29:31.889Z,98251.03
2022-08-17T21:32:06.281Z,98246.25
2022-08-17T21:34:35.560Z,98247.00
2022-08-17T21:37:30.462Z,98257.25
2022-08-17T21:40:11.210Z,98259.63
2022-08-17T21:42:47.913Z,98265.16
2022-08-17T21:45:36.387Z,98270.66
2022-08-17T21:48:19.812Z,98273.81
2022-08-17T21:51:01.739Z,98279.38
2022-08-17T21:53:59.922Z,98272.66
2022-08-17T21:56:36.292Z,98281.75
2022-08-17T21:59:28.393Z,98280.56
2022-08-17T22:02:00.526Z,98295.56
2022-08-17T22:04:30.995Z,98299.09
2022-08-17T22:07:02.412Z,98297.84
2022-08-17T22:09:45.947Z,98293.91
2022-08-17T22:12:21.042Z,98305.78
2022-08-17T22:15:06.140Z,98310.94
2022-08-17T22:17:46.510Z,98329.84
2022-08-17T22:20:20.924Z,98331.41
2022-08-17T22:23:09.219Z,98344.03
2022-08-17T22:26:00.096Z,98339.66
2022-08-17T22:28:47.266Z,98348.72
2022-08-17T22:31:24.750Z,98349.53
2022-08-17T22:34:15.825Z,98360.56
2022-08-17T22:36:43.082Z,98376.28
2022-08-17T22:39:09.853Z,98394.34
2022-08-17T22:41:59.366Z,98434.91
2022-08-17T22:44:47.944Z,98451.84
2022-08-17T22:47:14.737Z,98444.84
2022-08-17T22:50:25.680Z,98444.88
2022-08-17T22:53:22.765Z,98448.34
2022-08-17T22:56:17.596Z,98452.94
2022-08-17T22:59:31.474Z,98445.28
2022-08-17T23:02:21.742Z,98445.88
2022-08-17T23:05:16.526Z,98448.22
2022-08-17T23:07:46.995Z,98428.63
2022-08-17T23:10:14.961Z,98417.94
2022-08-17T23:12:42.427Z,98405.28
2022-08-17T23:15:19.093Z,98403.34
2022-08-17T23:17:46.261Z,98401.34
2022-08-17T23:20:15.976Z,98399.81
2022-08-17T23:22:51.845Z,98390.00
2022-08-17T23:25:31.410Z,98384.50
2022-08-17T23:28:01.463Z,98382.91
2022-08-17T23:30:32.529Z,98376.16
2022-08-17T23:33:04.710Z,98378.97
2022-08-17T23:35:40.578Z,98372.69
2022-08-17T23:38:10.703Z,98380.50
2022-08-17T23:40:39.997Z,98367.06
2022-08-17T23:43:24.775Z,98363.09
2022-08-17T23:45:59.669Z,98358.34
2022-08-17T23:48:36.132Z,98362.97
2022-08-17T23:51:09.364Z,98368.25
2022-08-17T23:53:42.438Z,98372.50
2022-08-17T23:56:11.167Z,98389.31
2022-08-17T23:58:43.752Z,98399.81
